Time;durP1;ratioP1;P1;durP2;ratioP2;P2;SDS_P1;SDS_P2;PMS_P1;PMS_P2;Temp;Humidity;BMP_temperature;BMP_pressure;BME280_temperature;BME280_humidity;BME280_pressure;Samples;Min_cycle;Max_cycle;Signal;HPM_P1;HPM_P2
2023/08/22 00:00:10;;;;;;;0.90;0.52;;;16.10;99.90;;;;;;5098082;27;20043;-68
2023/08/22 00:02:36;;;;;;;0.10;0.10;;;16.10;99.90;;;;;;5103635;27;20042;-68
2023/08/22 00:05:02;;;;;;;0.10;0.10;;;16.00;99.90;;;;;;5117489;27;20040;-68
2023/08/22 00:07:27;;;;;;;0.20;0.20;;;16.10;99.90;;;;;;5098965;27;20040;-68
2023/08/22 00:09:53;;;;;;;0.15;0.15;;;16.10;99.90;;;;;;5103923;27;20039;-68
2023/08/22 00:12:19;;;;;;;0.00;0.00;;;16.00;99.90;;;;;;5097537;27;20031;-69
2023/08/22 00:14:45;;;;;;;0.10;0.10;;;16.10;99.90;;;;;;5101756;28;20071;-69
2023/08/22 00:17:11;;;;;;;0.00;0.00;;;16.00;99.90;;;;;;5103227;27;20500;-69
2023/08/22 00:19:38;;;;;;;0.10;0.10;;;16.00;99.90;;;;;;5105261;27;20039;-69
2023/08/22 00:22:04;;;;;;;0.20;0.20;;;15.90;99.90;;;;;;5096620;27;20070;-69
2023/08/22 00:24:30;;;;;;;0.22;0.10;;;15.90;99.90;;;;;;5101078;28;20393;-68
2023/08/22 00:26:57;;;;;;;0.70;0.55;;;15.80;99.90;;;;;;5096797;28;20038;-68
2023/08/22 00:29:23;;;;;;;0.15;0.13;;;15.70;99.90;;;;;;5102204;28;20054;-68
2023/08/22 00:31:49;;;;;;;0.20;0.20;;;15.70;99.90;;;;;;5102679;28;20473;-68
2023/08/22 00:34:14;;;;;;;0.10;0.10;;;15.60;99.90;;;;;;5103498;28;20050;-68
2023/08/22 00:36:40;;;;;;;0.57;0.43;;;15.60;99.90;;;;;;5101114;28;20035;-68
2023/08/22 00:39:05;;;;;;;0.30;0.30;;;15.50;99.90;;;;;;5098926;28;20046;-68
2023/08/22 00:41:32;;;;;;;0.10;0.10;;;15.50;99.90;;;;;;5100867;28;20045;-68
2023/08/22 00:43:58;;;;;;;0.03;0.03;;;15.50;99.90;;;;;;5116910;28;20382;-68
2023/08/22 00:46:26;;;;;;;1.10;0.10;;;15.50;99.90;;;;;;5104464;28;20083;-68
2023/08/22 00:48:52;;;;;;;1.17;0.65;;;15.50;99.90;;;;;;5100203;28;20039;-68
2023/08/22 00:51:17;;;;;;;0.08;0.08;;;15.40;99.90;;;;;;5129927;27;20050;-68
2023/08/22 00:53:44;;;;;;;0.22;0.20;;;15.50;99.90;;;;;;5090654;28;20068;-68
2023/08/22 00:56:10;;;;;;;0.00;0.00;;;15.50;99.90;;;;;;5100617;28;20039;-68
2023/08/22 00:58:37;;;;;;;0.13;0.13;;;15.50;99.90;;;;;;5094898;28;20825;-68
2023/08/22 01:01:03;;;;;;;0.10;0.10;;;15.50;99.90;;;;;;5103866;28;20036;-68
2023/08/22 01:03:28;;;;;;;0.00;0.00;;;15.50;99.90;;;;;;5100488;28;20031;-68
2023/08/22 01:06:00;;;;;;;0.05;0.05;;;15.50;99.90;;;;;;5097244;28;20359;-68
2023/08/22 01:08:31;;;;;;;0.20;0.20;;;15.50;99.90;;;;;;5098418;28;20035;-68
2023/08/22 01:11:10;;;;;;;0.10;0.10;;;15.50;99.90;;;;;;5098075;28;20047;-68
2023/08/22 01:13:39;;;;;;;0.15;0.15;;;15.50;99.90;;;;;;5100562;28;20099;-68
2023/08/22 01:16:06;;;;;;;0.10;0.10;;;15.50;99.90;;;;;;5094863;28;20047;-68
2023/08/22 01:18:33;;;;;;;0.08;0.08;;;15.60;99.90;;;;;;5097555;28;20043;-68
2023/08/22 01:21:04;;;;;;;0.75;0.20;;;15.60;99.90;;;;;;5102179;28;20050;-68
2023/08/22 01:23:30;;;;;;;0.38;0.38;;;15.50;99.90;;;;;;5083276;28;20067;-68
2023/08/22 01:25:56;;;;;;;0.15;0.15;;;15.50;99.90;;;;;;5118124;27;20055;-68
2023/08/22 01:28:44;;;;;;;0.30;0.30;;;15.50;99.90;;;;;;5099431;27;20402;-68
2023/08/22 01:31:12;;;;;;;0.10;0.10;;;15.50;99.90;;;;;;5106763;27;20035;-68
2023/08/22 01:33:46;;;;;;;0.10;0.10;;;15.50;99.90;;;;;;5102979;27;20035;-68
2023/08/22 01:36:13;;;;;;;0.52;0.52;;;15.60;99.90;;;;;;5139200;27;20043;-67
2023/08/22 01:38:42;;;;;;;0.10;0.10;;;15.50;99.90;;;;;;5098642;27;20122;-68
2023/08/22 01:41:08;;;;;;;0.10;0.10;;;15.50;99.90;;;;;;5102043;27;20043;-68
2023/08/22 01:43:34;;;;;;;0.00;0.00;;;15.50;99.90;;;;;;5102515;27;20041;-68
2023/08/22 01:46:00;;;;;;;0.05;0.05;;;15.60;99.90;;;;;;5124508;27;20107;-68
2023/08/22 01:48:25;;;;;;;0.57;0.20;;;15.60;99.90;;;;;;5097182;27;20039;-68
2023/08/22 01:50:51;;;;;;;0.38;0.15;;;15.60;99.90;;;;;;5103232;27;20527;-68
2023/08/22 01:53:16;;;;;;;0.22;0.20;;;15.60;99.90;;;;;;5103832;27;20070;-68
2023/08/22 01:55:42;;;;;;;0.15;0.15;;;15.60;99.90;;;;;;5098578;27;20414;-68
2023/08/22 01:58:11;;;;;;;0.00;0.00;;;15.60;99.90;;;;;;5095091;27;20076;-68
2023/08/22 02:00:38;;;;;;;0.20;0.20;;;15.60;99.90;;;;;;5097407;27;20036;-68
2023/08/22 02:03:04;;;;;;;0.00;0.00;;;15.60;99.90;;;;;;5099777;27;20387;-68
2023/08/22 02:05:29;;;;;;;0.75;0.75;;;15.60;99.90;;;;;;5125883;27;20039;-68
2023/08/22 02:07:55;;;;;;;0.20;0.20;;;15.60;99.90;;;;;;5106212;27;20117;-68
2023/08/22 02:10:20;;;;;;;0.20;0.20;;;15.60;99.90;;;;;;5121493;27;20043;-67
2023/08/22 02:12:46;;;;;;;0.75;0.28;;;15.60;99.90;;;;;;5109195;27;20072;-68
2023/08/22 02:15:12;;;;;;;0.10;0.10;;;15.60;99.90;;;;;;5102391;27;20039;-68
2023/08/22 02:17:38;;;;;;;0.30;0.30;;;15.60;99.90;;;;;;5093914;27;20050;-68
2023/08/22 02:20:05;;;;;;;0.10;0.10;;;15.60;99.90;;;;;;5107492;27;20035;-68
2023/08/22 02:22:31;;;;;;;0.20;0.20;;;15.60;99.90;;;;;;5111224;27;20039;-68
2023/08/22 02:24:57;;;;;;;0.38;0.35;;;15.60;99.90;;;;;;5101791;27;20038;-68
2023/08/22 02:27:23;;;;;;;0.17;0.15;;;15.60;99.90;;;;;;5099691;27;20048;-68
2023/08/22 02:29:48;;;;;;;0.88;0.88;;;15.60;99.90;;;;;;5131183;27;20054;-68
2023/08/22 02:32:14;;;;;;;1.38;0.40;;;15.60;99.90;;;;;;5105563;27;20510;-68
2023/08/22 02:34:40;;;;;;;3.15;0.77;;;15.60;99.90;;;;;;5120262;27;20043;-68
2023/08/22 02:37:05;;;;;;;0.20;0.20;;;15.60;99.90;;;;;;5130882;27;20039;-67
2023/08/22 02:39:31;;;;;;;0.15;0.15;;;15.50;99.90;;;;;;5133137;27;20466;-67
2023/08/22 02:41:56;;;;;;;0.10;0.10;;;15.50;99.90;;;;;;5126227;27;20031;-67
2023/08/22 02:44:22;;;;;;;0.13;0.10;;;15.50;99.90;;;;;;5104551;27;20771;-68
2023/08/22 02:46:47;;;;;;;0.20;0.20;;;15.50;99.90;;;;;;5099655;27;20062;-68
2023/08/22 02:49:13;;;;;;;0.10;0.10;;;15.50;99.90;;;;;;5106039;27;20039;-68
2023/08/22 02:51:39;;;;;;;1.73;0.55;;;15.40;99.90;;;;;;5133642;27;20037;-68
2023/08/22 02:54:04;;;;;;;1.55;0.50;;;15.40;99.90;;;;;;5104043;27;20072;-67
2023/08/22 02:56:30;;;;;;;4.50;0.30;;;15.40;99.90;;;;;;5105465;27;20066;-68
2023/08/22 02:58:55;;;;;;;0.20;0.20;;;15.40;99.90;;;;;;5099632;27;20478;-68
2023/08/22 03:01:21;;;;;;;0.10;0.10;;;15.40;99.90;;;;;;5102224;27;20075;-68
2023/08/22 03:03:50;;;;;;;0.30;0.30;;;15.40;99.90;;;;;;5137396;27;20039;-68
2023/08/22 03:06:16;;;;;;;0.10;0.10;;;15.30;99.90;;;;;;5101137;27;20074;-68
2023/08/22 03:08:42;;;;;;;0.20;0.20;;;15.30;99.90;;;;;;5101641;27;20434;-68
2023/08/22 03:11:08;;;;;;;0.00;0.00;;;15.30;99.90;;;;;;5105309;27;20066;-68
2023/08/22 03:13:34;;;;;;;0.75;0.40;;;15.20;99.90;;;;;;5100031;27;20047;-68
2023/08/22 03:16:00;;;;;;;0.28;0.28;;;15.10;99.90;;;;;;5075229;28;20589;-68
2023/08/22 03:18:26;;;;;;;0.30;0.20;;;15.10;99.90;;;;;;5100187;27;20195;-68
2023/08/22 03:20:56;;;;;;;0.40;0.22;;;15.10;99.90;;;;;;5107811;27;20374;-68
2023/08/22 03:23:23;;;;;;;0.35;0.35;;;15.10;99.90;;;;;;5098660;27;20047;-68
2023/08/22 03:25:59;;;;;;;0.28;0.28;;;15.10;99.90;;;;;;5098923;27;20092;-68
2023/08/22 03:28:26;;;;;;;0.30;0.30;;;15.00;99.90;;;;;;5099534;27;20497;-68
2023/08/22 03:31:02;;;;;;;0.47;0.47;;;15.00;99.90;;;;;;5126020;27;20055;-68
2023/08/22 03:33:29;;;;;;;0.90;0.40;;;15.00;99.90;;;;;;5101908;27;20055;-68
2023/08/22 03:35:56;;;;;;;0.43;0.20;;;15.00;99.90;;;;;;5108919;27;20198;-68
2023/08/22 03:38:22;;;;;;;0.20;0.20;;;15.00;99.90;;;;;;5102533;27;20372;-68
2023/08/22 03:40:48;;;;;;;0.30;0.30;;;14.90;99.90;;;;;;5099679;27;20050;-68
2023/08/22 03:43:15;;;;;;;0.10;0.10;;;14.90;99.90;;;;;;5100918;27;20498;-68
2023/08/22 03:45:42;;;;;;;0.10;0.10;;;14.90;99.90;;;;;;5104962;27;20118;-68
2023/08/22 03:48:07;;;;;;;0.20;0.20;;;14.90;99.90;;;;;;5099987;27;20035;-68
2023/08/22 03:50:33;;;;;;;0.10;0.10;;;14.90;99.90;;;;;;5104531;27;20039;-68
2023/08/22 03:52:59;;;;;;;0.60;0.40;;;14.90;99.90;;;;;;5101479;27;20042;-68
2023/08/22 03:55:25;;;;;;;0.10;0.10;;;14.80;99.90;;;;;;5100958;27;20046;-68
2023/08/22 03:57:50;;;;;;;0.88;0.20;;;14.80;99.90;;;;;;5095711;28;20127;-68
2023/08/22 04:00:16;;;;;;;0.30;0.20;;;14.80;99.90;;;;;;5081652;28;20051;-68
2023/08/22 04:02:41;;;;;;;0.50;0.30;;;14.80;99.90;;;;;;5096912;28;20043;-68
2023/08/22 04:05:07;;;;;;;0.00;0.00;;;14.80;99.90;;;;;;5122050;27;20035;-68
2023/08/22 04:07:33;;;;;;;0.30;0.28;;;14.80;99.90;;;;;;5111878;28;20047;-68
2023/08/22 04:09:58;;;;;;;0.38;0.38;;;14.80;99.90;;;;;;5093809;28;20043;-68
2023/08/22 04:12:24;;;;;;;0.00;0.00;;;14.80;99.90;;;;;;5109229;27;20048;-68
2023/08/22 04:14:50;;;;;;;0.22;0.22;;;14.70;99.90;;;;;;5127827;27;20355;-68
2023/08/22 04:17:15;;;;;;;0.55;0.45;;;14.70;99.90;;;;;;5118305;27;20074;-68
2023/08/22 04:19:41;;;;;;;0.20;0.20;;;14.70;99.90;;;;;;5109430;27;20102;-68
2023/08/22 04:22:07;;;;;;;0.50;0.40;;;14.70;99.90;;;;;;5104071;27;20042;-69
2023/08/22 04:24:33;;;;;;;0.13;0.10;;;14.80;99.90;;;;;;5112054;27;20039;-69
2023/08/22 04:26:58;;;;;;;0.10;0.10;;;14.80;99.90;;;;;;5112181;28;20039;-69
2023/08/22 04:29:24;;;;;;;0.10;0.10;;;14.70;99.90;;;;;;5118142;27;20543;-69
2023/08/22 04:31:50;;;;;;;0.08;0.08;;;14.70;99.90;;;;;;5102347;28;20537;-69
2023/08/22 04:34:15;;;;;;;0.65;0.10;;;14.70;99.90;;;;;;5108602;28;20028;-68
2023/08/22 04:36:41;;;;;;;0.10;0.10;;;14.70;99.90;;;;;;5115738;28;20035;-69
2023/08/22 04:39:07;;;;;;;0.20;0.20;;;14.70;99.90;;;;;;5104926;28;20031;-69
2023/08/22 04:41:32;;;;;;;0.00;0.00;;;14.70;99.90;;;;;;5093206;28;20273;-71
2023/08/22 04:43:58;;;;;;;0.10;0.10;;;14.70;99.90;;;;;;5110559;28;20061;-69
2023/08/22 04:46:24;;;;;;;0.10;0.10;;;14.70;99.90;;;;;;5094186;28;20126;-69
2023/08/22 04:48:49;;;;;;;0.17;0.17;;;14.70;99.90;;;;;;5102031;28;20404;-69
2023/08/22 04:51:15;;;;;;;0.00;0.00;;;14.70;99.90;;;;;;5101351;28;20039;-70
2023/08/22 04:53:41;;;;;;;0.08;0.05;;;14.70;99.90;;;;;;5099771;28;20063;-70
2023/08/22 04:56:07;;;;;;;0.17;0.17;;;14.60;99.90;;;;;;5110074;28;20104;-70
2023/08/22 04:58:32;;;;;;;0.00;0.00;;;14.50;99.90;;;;;;5094988;28;20050;-70
2023/08/22 05:00:58;;;;;;;0.10;0.10;;;14.50;99.90;;;;;;5095444;28;20504;-70
2023/08/22 05:03:24;;;;;;;0.20;0.20;;;14.30;99.90;;;;;;5103426;27;20118;-70
2023/08/22 05:05:50;;;;;;;0.20;0.20;;;14.20;99.90;;;;;;5109530;27;20398;-70
2023/08/22 05:08:16;;;;;;;0.10;0.10;;;14.10;99.90;;;;;;5106442;27;20124;-70
2023/08/22 05:10:41;;;;;;;0.15;0.15;;;14.00;99.90;;;;;;5095556;28;20050;-70
2023/08/22 05:13:07;;;;;;;0.30;0.30;;;14.00;99.90;;;;;;5114021;27;20035;-70
2023/08/22 05:15:33;;;;;;;0.10;0.10;;;14.00;99.90;;;;;;5113569;27;20047;-70
2023/08/22 05:17:58;;;;;;;0.00;0.00;;;14.00;99.90;;;;;;5120000;27;20035;-70
2023/08/22 05:20:24;;;;;;;0.15;0.15;;;14.00;99.90;;;;;;5122152;27;20508;-69
2023/08/22 05:22:49;;;;;;;0.10;0.10;;;14.10;99.90;;;;;;5102857;28;20043;-69
2023/08/22 05:25:15;;;;;;;0.22;0.22;;;14.10;99.90;;;;;;5111128;27;20031;-69
2023/08/22 05:27:41;;;;;;;0.10;0.10;;;14.20;99.90;;;;;;5097103;27;20061;-69
2023/08/22 05:30:07;;;;;;;0.00;0.00;;;14.30;99.90;;;;;;5102145;27;20035;-69
2023/08/22 05:32:32;;;;;;;0.10;0.10;;;14.40;99.90;;;;;;5103872;27;20457;-69
2023/08/22 05:34:58;;;;;;;0.10;0.10;;;14.60;99.90;;;;;;5096039;27;20126;-69
2023/08/22 05:37:24;;;;;;;0.08;0.08;;;14.70;99.90;;;;;;5095072;27;20039;-69
2023/08/22 05:39:50;;;;;;;0.20;0.20;;;14.80;99.90;;;;;;5133711;27;20058;-69
2023/08/22 05:42:16;;;;;;;0.52;0.47;;;14.80;99.90;;;;;;5095094;27;20085;-69
2023/08/22 05:44:41;;;;;;;0.10;0.10;;;14.90;99.90;;;;;;5100723;27;20046;-69
2023/08/22 05:47:08;;;;;;;0.00;0.00;;;15.00;99.90;;;;;;5096677;27;20035;-69
2023/08/22 05:49:34;;;;;;;0.10;0.10;;;15.00;99.90;;;;;;5104065;27;20047;-68
2023/08/22 05:52:02;;;;;;;0.00;0.00;;;15.10;99.90;;;;;;5099309;27;20111;-68
2023/08/22 05:54:28;;;;;;;0.10;0.10;;;15.10;99.90;;;;;;5115379;27;20370;-69
2023/08/22 05:56:54;;;;;;;0.10;0.10;;;15.20;99.90;;;;;;5092366;27;20677;-68
2023/08/22 05:59:19;;;;;;;0.20;0.20;;;15.30;99.90;;;;;;5115467;27;20130;-68
2023/08/22 06:01:45;;;;;;;0.20;0.20;;;15.40;99.90;;;;;;5093561;27;20663;-68
2023/08/22 06:04:10;;;;;;;0.10;0.10;;;15.50;99.90;;;;;;5099260;27;20062;-68
2023/08/22 06:06:36;;;;;;;0.08;0.08;;;15.60;99.90;;;;;;5097845;27;20044;-68
2023/08/22 06:09:02;;;;;;;0.40;0.32;;;15.70;99.90;;;;;;5132653;27;20051;-68
2023/08/22 06:11:27;;;;;;;0.20;0.20;;;15.80;99.90;;;;;;5094282;28;22053;-68
2023/08/22 06:13:55;;;;;;;0.30;0.30;;;16.00;99.90;;;;;;5098925;27;20558;-67
2023/08/22 06:16:20;;;;;;;0.20;0.20;;;16.20;99.90;;;;;;5117957;27;20051;-68
2023/08/22 06:18:46;;;;;;;0.30;0.30;;;16.30;99.90;;;;;;5102261;27;20031;-68
2023/08/22 06:21:11;;;;;;;0.77;0.75;;;16.40;99.90;;;;;;5135185;27;20043;-68
2023/08/22 06:23:37;;;;;;;1.20;0.43;;;16.40;99.90;;;;;;5133653;27;20493;-68
2023/08/22 06:26:03;;;;;;;0.13;0.13;;;16.50;99.90;;;;;;5102735;27;20039;-68
2023/08/22 06:28:28;;;;;;;0.22;0.22;;;16.70;99.90;;;;;;5095119;27;20074;-68
2023/08/22 06:30:54;;;;;;;0.10;0.10;;;16.80;99.90;;;;;;5098269;27;20031;-68
2023/08/22 06:33:19;;;;;;;1.30;0.30;;;16.90;99.90;;;;;;5095693;27;20130;-68
2023/08/22 06:35:47;;;;;;;0.45;0.45;;;17.00;99.90;;;;;;5096057;27;20044;-68
2023/08/22 06:38:12;;;;;;;0.38;0.20;;;17.10;99.90;;;;;;5102516;27;20042;-69
2023/08/22 06:40:38;;;;;;;0.30;0.30;;;17.20;99.90;;;;;;5122284;27;20043;-68
2023/08/22 06:43:03;;;;;;;0.25;0.20;;;17.20;99.90;;;;;;5097492;27;20383;-68
2023/08/22 06:45:29;;;;;;;0.80;0.63;;;17.30;99.90;;;;;;5099698;27;20119;-68
2023/08/22 06:47:55;;;;;;;0.30;0.30;;;17.30;99.90;;;;;;5097805;27;20050;-68
2023/08/22 06:50:20;;;;;;;1.00;0.85;;;17.40;99.90;;;;;;5097508;27;20047;-69
2023/08/22 06:52:46;;;;;;;0.32;0.32;;;17.40;99.90;;;;;;5098537;27;20046;-69
2023/08/22 06:55:12;;;;;;;0.80;0.52;;;17.50;99.90;;;;;;5098909;27;20118;-68
2023/08/22 06:57:38;;;;;;;0.10;0.10;;;17.50;99.90;;;;;;5099782;27;20164;-68
2023/08/22 07:00:15;;;;;;;2.72;0.63;;;17.60;99.90;;;;;;5101334;27;20047;-69
2023/08/22 07:02:41;;;;;;;0.47;0.38;;;17.60;99.90;;;;;;5101001;27;20407;-69
2023/08/22 07:05:08;;;;;;;0.70;0.38;;;17.80;99.90;;;;;;5105468;27;20042;-69
2023/08/22 07:07:35;;;;;;;0.52;0.38;;;17.90;99.90;;;;;;5099980;27;20171;-69
2023/08/22 07:10:00;;;;;;;0.30;0.30;;;18.10;99.90;;;;;;5099897;27;20126;-69
2023/08/22 07:12:26;;;;;;;1.10;0.98;;;18.30;99.90;;;;;;5102394;27;20635;-69
2023/08/22 07:14:51;;;;;;;0.35;0.35;;;18.50;99.90;;;;;;5101425;28;20055;-69
2023/08/22 07:17:17;;;;;;;1.70;1.10;;;18.60;99.90;;;;;;5135505;27;20402;-68
2023/08/22 07:19:43;;;;;;;0.40;0.40;;;18.80;99.90;;;;;;5100416;27;20251;-69
2023/08/22 07:22:08;;;;;;;1.15;1.10;;;18.90;99.90;;;;;;5103831;27;20034;-69
2023/08/22 07:24:34;;;;;;;0.98;0.50;;;18.90;99.90;;;;;;5096815;27;20486;-69
2023/08/22 07:26:59;;;;;;;2.83;0.95;;;19.00;99.90;;;;;;5113729;27;20042;-69
2023/08/22 07:29:25;;;;;;;1.95;0.55;;;19.10;99.90;;;;;;5100243;27;20070;-70
2023/08/22 07:31:51;;;;;;;1.45;0.95;;;19.20;99.90;;;;;;5098650;27;20039;-69
2023/08/22 07:34:16;;;;;;;1.67;1.20;;;19.40;99.90;;;;;;5100640;27;20102;-68
2023/08/22 07:36:42;;;;;;;0.95;0.93;;;19.50;99.90;;;;;;5106972;27;20525;-69
2023/08/22 07:39:07;;;;;;;0.85;0.77;;;19.60;99.90;;;;;;5111729;27;20034;-68
2023/08/22 07:41:33;;;;;;;0.65;0.45;;;19.70;99.90;;;;;;5113512;27;20108;-67
2023/08/22 07:43:59;;;;;;;5.30;1.40;;;19.80;99.90;;;;;;5096251;27;20491;-69
2023/08/22 07:46:24;;;;;;;0.60;0.60;;;19.80;99.90;;;;;;5095916;27;20199;-69
2023/08/22 07:48:50;;;;;;;0.22;0.22;;;19.80;99.90;;;;;;5121873;27;20042;-69
2023/08/22 07:51:15;;;;;;;1.05;0.35;;;19.80;99.90;;;;;;5112924;27;20090;-66
2023/08/22 07:53:41;;;;;;;2.83;1.05;;;19.90;99.90;;;;;;5104739;28;20066;-67
2023/08/22 07:56:07;;;;;;;1.63;0.77;;;19.90;99.90;;;;;;5121947;27;20035;-68
2023/08/22 07:58:33;;;;;;;0.30;0.30;;;19.90;99.90;;;;;;5101132;27;20043;-69
2023/08/22 08:00:58;;;;;;;0.10;0.10;;;20.00;99.90;;;;;;5109618;28;20054;-69
2023/08/22 08:03:24;;;;;;;0.43;0.20;;;20.00;99.90;;;;;;5100467;27;20533;-66
2023/08/22 08:05:50;;;;;;;0.40;0.40;;;20.10;99.90;;;;;;5121354;27;20120;-67
2023/08/22 08:08:15;;;;;;;1.48;0.40;;;20.10;99.90;;;;;;5099790;27;20516;-67
2023/08/22 08:10:41;;;;;;;0.77;0.77;;;20.10;99.90;;;;;;5113518;27;20047;-68
2023/08/22 08:13:06;;;;;;;0.20;0.20;;;20.10;99.90;;;;;;5114292;27;20035;-67
2023/08/22 08:15:32;;;;;;;0.40;0.40;;;20.20;99.90;;;;;;5111248;27;20035;-67
2023/08/22 08:17:59;;;;;;;0.43;0.43;;;20.20;99.90;;;;;;5110554;27;20123;-67
2023/08/22 08:20:25;;;;;;;2.53;0.63;;;20.20;99.90;;;;;;5126541;27;20050;-68
2023/08/22 08:22:51;;;;;;;1.98;0.88;;;20.30;99.90;;;;;;5094262;28;20084;-68
2023/08/22 08:25:16;;;;;;;0.50;0.43;;;20.20;99.90;;;;;;5096297;28;20031;-67
2023/08/22 08:27:42;;;;;;;0.75;0.52;;;20.20;99.90;;;;;;5110818;27;20770;-67
2023/08/22 08:30:10;;;;;;;0.20;0.20;;;20.30;99.90;;;;;;5110435;27;20042;-67
2023/08/22 08:32:35;;;;;;;0.35;0.35;;;20.40;99.90;;;;;;5126923;27;20048;-69
2023/08/22 08:35:01;;;;;;;0.93;0.77;;;20.40;99.90;;;;;;5108348;28;20047;-67
2023/08/22 08:37:28;;;;;;;0.13;0.13;;;20.40;99.90;;;;;;5104445;28;20043;-67
2023/08/22 08:39:53;;;;;;;1.23;0.52;;;20.50;99.90;;;;;;5117667;28;20055;-69
2023/08/22 08:42:19;;;;;;;1.27;1.17;;;20.60;99.90;;;;;;5111141;28;20031;-67
2023/08/22 08:44:45;;;;;;;2.35;1.23;;;20.70;99.90;;;;;;5104683;28;20063;-69
2023/08/22 08:47:11;;;;;;;0.25;0.25;;;20.70;99.90;;;;;;5121016;28;20043;-68
2023/08/22 08:49:37;;;;;;;0.20;0.20;;;20.90;99.90;;;;;;5106228;28;20511;-70
2023/08/22 08:52:04;;;;;;;0.40;0.40;;;20.90;99.90;;;;;;5109666;28;20095;-66
2023/08/22 08:54:31;;;;;;;0.50;0.50;;;20.90;99.90;;;;;;5114064;28;20038;-68
2023/08/22 08:56:57;;;;;;;0.30;0.30;;;20.90;99.90;;;;;;5111052;28;20473;-67
2023/08/22 08:59:23;;;;;;;3.80;1.13;;;20.80;99.90;;;;;;5091980;28;20044;-67
2023/08/22 09:01:52;;;;;;;0.90;0.30;;;20.70;99.90;;;;;;5107043;28;20046;-67
2023/08/22 09:04:19;;;;;;;1.20;0.77;;;20.70;99.90;;;;;;5111106;28;20043;-67
2023/08/22 09:06:46;;;;;;;0.52;0.52;;;20.90;99.90;;;;;;5121898;28;20035;-70
2023/08/22 09:09:14;;;;;;;1.10;0.55;;;21.00;99.90;;;;;;5102720;28;20035;-68
2023/08/22 09:11:47;;;;;;;1.13;0.80;;;21.30;99.90;;;;;;5092158;28;20040;-67
2023/08/22 09:14:20;;;;;;;0.40;0.40;;;21.30;99.90;;;;;;5090483;28;20043;-67
2023/08/22 09:16:47;;;;;;;0.40;0.40;;;21.10;99.90;;;;;;5114997;28;20379;-69
2023/08/22 09:19:13;;;;;;;0.55;0.43;;;21.10;99.90;;;;;;5114038;28;20043;-69
2023/08/22 09:21:38;;;;;;;2.83;0.55;;;21.10;99.90;;;;;;5095918;28;20398;-67
2023/08/22 09:24:09;;;;;;;0.40;0.40;;;21.20;99.90;;;;;;5100053;28;20031;-69
2023/08/22 09:26:36;;;;;;;0.28;0.28;;;21.30;99.90;;;;;;5110368;28;20450;-69
2023/08/22 09:29:28;;;;;;;1.00;1.00;;;21.30;99.90;;;;;;5107819;28;20054;-69
2023/08/22 09:32:02;;;;;;;;;;;21.40;99.90;;;;;;5110082;28;20055;-67
2023/08/22 09:34:29;;;;;;;1.48;0.55;;;21.50;99.90;;;;;;5095135;28;20319;-69
2023/08/22 09:36:54;;;;;;;0.35;0.35;;;21.70;99.90;;;;;;5119036;28;20801;-67
2023/08/22 09:39:21;;;;;;;1.02;0.85;;;21.70;99.90;;;;;;5107033;27;20066;-68
2023/08/22 09:41:58;;;;;;;1.30;1.17;;;21.80;99.90;;;;;;5112291;28;20078;-68
2023/08/22 09:44:30;;;;;;;0.22;0.22;;;22.00;99.90;;;;;;5107132;28;20093;-69
2023/08/22 09:46:57;;;;;;;0.60;0.57;;;22.10;99.90;;;;;;5106097;28;20092;-69
2023/08/22 09:49:23;;;;;;;0.40;0.38;;;22.30;99.90;;;;;;5113372;27;20362;-68
2023/08/22 09:51:52;;;;;;;0.40;0.30;;;22.40;99.90;;;;;;5110232;27;20070;-68
2023/08/22 09:54:17;;;;;;;2.53;1.00;;;22.40;99.90;;;;;;5123534;27;20058;-67
2023/08/22 09:56:45;;;;;;;0.68;0.40;;;22.20;99.90;;;;;;5100034;27;20047;-67
2023/08/22 09:59:13;;;;;;;1.27;1.25;;;22.10;99.90;;;;;;5101682;27;20093;-68
2023/08/22 10:01:41;;;;;;;0.30;0.30;;;22.10;99.90;;;;;;5132362;27;20046;-68
2023/08/22 10:04:07;;;;;;;0.55;0.55;;;22.20;99.90;;;;;;5108254;27;20035;-68
2023/08/22 10:06:36;;;;;;;0.17;0.15;;;22.30;99.90;;;;;;5120027;27;20035;-67
2023/08/22 10:09:10;;;;;;;0.75;0.50;;;22.60;99.90;;;;;;5095185;28;20043;-67
2023/08/22 10:11:57;;;;;;;0.65;0.50;;;22.60;99.90;;;;;;5115733;27;20054;-70
2023/08/22 10:14:32;;;;;;;0.50;0.50;;;22.40;99.90;;;;;;5104317;28;20035;-68
2023/08/22 10:16:58;;;;;;;0.10;0.10;;;22.20;99.90;;;;;;5103663;27;20389;-68
2023/08/22 10:19:25;;;;;;;0.90;0.90;;;22.10;99.90;;;;;;5122327;27;20398;-68
2023/08/22 10:21:53;;;;;;;0.63;0.63;;;21.90;99.90;;;;;;5115351;27;20046;-67
2023/08/22 10:24:30;;;;;;;0.22;0.22;;;21.80;99.90;;;;;;5095105;28;20035;-67
2023/08/22 10:27:05;;;;;;;0.35;0.35;;;21.90;99.90;;;;;;5092733;27;20386;-66
2023/08/22 10:29:35;;;;;;;0.68;0.68;;;22.00;99.90;;;;;;5108462;27;20123;-69
2023/08/22 10:32:01;;;;;;;1.88;0.55;;;21.90;99.90;;;;;;5109746;28;20039;-67
2023/08/22 10:34:39;;;;;;;0.10;0.10;;;21.80;99.90;;;;;;5111430;27;20474;-68
2023/08/22 10:37:25;;;;;;;0.20;0.20;;;21.80;99.90;;;;;;5099047;27;20449;-67
2023/08/22 10:39:52;;;;;;;0.00;0.00;;;21.80;99.90;;;;;;5112051;27;20533;-67
2023/08/22 10:42:18;;;;;;;0.32;0.32;;;21.80;99.90;;;;;;5107744;27;20069;-68
2023/08/22 10:44:49;;;;;;;0.63;0.63;;;21.80;99.90;;;;;;5105467;27;20047;-67
2023/08/22 10:47:22;;;;;;;0.35;0.35;;;21.70;99.90;;;;;;5156049;27;20126;-69
2023/08/22 10:49:52;;;;;;;1.25;0.98;;;21.70;99.90;;;;;;5097237;28;20325;-67
2023/08/22 10:52:25;;;;;;;0.40;0.40;;;21.70;99.90;;;;;;5095420;28;20039;-67
2023/08/22 10:55:03;;;;;;;0.40;0.40;;;21.70;99.90;;;;;;5094416;28;20517;-69
2023/08/22 10:57:33;;;;;;;0.28;0.28;;;21.70;99.90;;;;;;5108902;27;20545;-67
2023/08/22 10:59:58;;;;;;;0.15;0.13;;;21.80;99.90;;;;;;5098957;27;20509;-67
2023/08/22 11:02:28;;;;;;;0.30;0.30;;;21.90;99.90;;;;;;5095235;28;20032;-67
2023/08/22 11:04:56;;;;;;;1.35;0.43;;;22.00;99.90;;;;;;5096276;27;20034;-68
2023/08/22 11:07:25;;;;;;;0.13;0.13;;;22.20;99.90;;;;;;5093303;27;20401;-67
2023/08/22 11:09:51;;;;;;;0.45;0.45;;;22.40;99.90;;;;;;5102394;27;20047;-68
2023/08/22 11:12:24;;;;;;;0.20;0.20;;;22.60;99.90;;;;;;5098403;27;20088;-67
2023/08/22 11:14:51;;;;;;;0.40;0.30;;;22.70;99.90;;;;;;5101040;27;20568;-67
2023/08/22 11:17:20;;;;;;;0.20;0.20;;;22.90;99.90;;;;;;5106016;27;20031;-67
2023/08/22 11:19:48;;;;;;;0.20;0.20;;;23.00;99.90;;;;;;5104550;27;20371;-68
2023/08/22 11:22:14;;;;;;;5.18;1.40;;;23.10;99.90;;;;;;5096788;27;21318;-70
2023/08/22 11:24:49;;;;;;;0.47;0.47;;;23.10;99.90;;;;;;5112528;27;20466;-71
2023/08/22 11:27:15;;;;;;;1.45;0.73;;;23.10;99.90;;;;;;5105958;27;20088;-69
2023/08/22 11:29:52;;;;;;;0.10;0.10;;;23.10;99.90;;;;;;5102516;27;20049;-69
2023/08/22 11:32:21;;;;;;;0.38;0.38;;;23.20;99.90;;;;;;5088777;27;20031;-68
2023/08/22 11:34:52;;;;;;;4.85;0.82;;;23.20;99.90;;;;;;5113607;27;20236;-69
2023/08/22 11:37:19;;;;;;;0.22;0.22;;;23.30;99.90;;;;;;5106618;28;20390;-70
2023/08/22 11:39:52;;;;;;;0.38;0.15;;;23.40;99.90;;;;;;5096062;27;20067;-70
2023/08/22 11:42:19;;;;;;;1.52;0.88;;;23.40;99.90;;;;;;5108200;27;20035;-69
2023/08/22 11:45:06;;;;;;;0.15;0.15;;;23.50;99.90;;;;;;5105970;27;20473;-70
2023/08/22 11:47:56;;;;;;;0.40;0.40;;;23.60;99.90;;;;;;5098299;27;20054;-69
2023/08/22 11:50:29;;;;;;;1.40;0.77;;;23.60;99.90;;;;;;5132203;27;20097;-70
2023/08/22 11:52:57;;;;;;;0.20;0.20;;;23.70;99.90;;;;;;5101593;28;20035;-70
2023/08/22 11:55:28;;;;;;;0.30;0.30;;;23.70;99.90;;;;;;5095739;27;20176;-68
2023/08/22 11:58:00;;;;;;;0.30;0.30;;;23.60;99.90;;;;;;5104373;27;20122;-69
2023/08/22 12:00:27;;;;;;;0.50;0.50;;;23.70;99.90;;;;;;5112956;27;20046;-69
2023/08/22 12:02:55;;;;;;;1.42;1.33;;;23.70;99.90;;;;;;5105932;27;20050;-69
2023/08/22 12:05:33;;;;;;;0.32;0.32;;;23.70;99.90;;;;;;5111328;27;20035;-69
2023/08/22 12:08:20;;;;;;;0.57;0.57;;;23.80;99.90;;;;;;5120977;27;20049;-70
2023/08/22 12:10:53;;;;;;;0.65;0.65;;;23.80;99.90;;;;;;5133886;27;20700;-70
2023/08/22 12:13:21;;;;;;;0.82;0.57;;;23.80;99.90;;;;;;5107790;27;20039;-68
2023/08/22 12:15:48;;;;;;;5.30;0.77;;;23.90;99.90;;;;;;5113049;27;20039;-70
2023/08/22 12:18:15;;;;;;;1.50;1.40;;;24.00;99.90;;;;;;5102376;27;20063;-71
2023/08/22 12:20:42;;;;;;;1.65;0.10;;;23.90;99.90;;;;;;5106356;27;20047;-70
2023/08/22 12:23:09;;;;;;;1.13;1.05;;;23.90;99.90;;;;;;5098212;28;20130;-70
2023/08/22 12:25:37;;;;;;;2.25;0.35;;;23.90;99.90;;;;;;5110887;27;20389;-68
2023/08/22 12:28:03;;;;;;;0.63;0.63;;;23.90;99.90;;;;;;5103196;27;20039;-68
2023/08/22 12:30:30;;;;;;;0.70;0.70;;;23.90;99.90;;;;;;5111115;27;20046;-68
2023/08/22 12:32:56;;;;;;;0.30;0.30;;;23.80;99.90;;;;;;5104423;28;20121;-69
2023/08/22 12:35:21;;;;;;;1.75;1.08;;;23.80;99.90;;;;;;5103040;28;20110;-68
2023/08/22 12:37:47;;;;;;;0.93;0.85;;;23.80;99.90;;;;;;5104524;28;20035;-70
2023/08/22 12:40:13;;;;;;;1.35;1.25;;;23.80;99.90;;;;;;5106362;27;20023;-68
2023/08/22 12:42:41;;;;;;;2.33;0.63;;;23.70;99.90;;;;;;5125374;27;20123;-69
2023/08/22 12:45:08;;;;;;;0.30;0.30;;;23.70;99.90;;;;;;5103212;28;20413;-70
2023/08/22 12:47:39;;;;;;;0.98;0.60;;;23.80;99.90;;;;;;5106904;28;20417;-70